• Join FlightAware (Why Join?)
  • Login
  • US Flag 
07:53PM EDT


 

Airport Tracker/Info


-or-


 

Live Flight TrackerFlight Track Log ✈ SWA561 ✈ 25-Jun-2013 ✈ KBWI - KCLE

Flight Track Log - Related Links

Times and Time Zones

All times are in EDT time to prevent confusion due to time zone crossing. See the SWA561 flight status page for this flight to view local times or setup timezone preferences in your user account.

Time Position Orientation Groundspeed Altitude Reporting Facility
EDT Latitude Longitude Course Direction KTS MPH feet Rate Location/Type
05:10PM 39.1833 -76.7500 322° Northwest 201 231 2,500  Level Potomac TRACON
05:11PM 39.2000 -76.8333 284° West 237 273 4,900 2,700 Climbing Potomac TRACON
05:12PM 39.2167 -76.9167 284° West 261 300 8,000 2,820 Climbing Potomac TRACON
05:13PM 39.2500 -77.0000 297° West 263 303 10,600 2,340 Climbing Potomac TRACON
05:15PM 39.3361 -77.1989 299° West 313 360 15,300 2,280 Climbing Washington Center
05:16PM 39.3365 -77.2698 322° Northwest  Level FlightAware Approximate
05:17PM 39.3953 -77.3050 306° West 343 395 17,600  Level Washington Center
05:17PM 39.4561 -77.4111 307° West 360 414 20,200 2,340 Climbing Washington Center
05:18PM 39.5189 -77.5258 305° West 378 435 22,300 1,920 Climbing Washington Center
05:20PM 39.5878 -77.6514 305° West 390 449 24,200 2,280 Climbing Washington Center
05:20PM 39.6544 -77.7639 308° West 407 468 26,900 1,080 Climbing Washington Center
05:22PM 39.7658 -77.9606 306° West 408 470 27,000 480 Climbing Cleveland Center
05:23PM 39.8311 -78.0797 306° West 408 470 28,300 1,500 Climbing Cleveland Center
05:24PM 39.9025 -78.1989 308° West 413 475 30,000 720 Climbing Cleveland Center
05:25PM 39.9408 -78.3436 289° West 413 475 29,800 -600 Descending Cleveland Center
05:26PM 39.9792 -78.4861 289° West 413 475 28,800 -1,080 Descending Cleveland Center
05:27PM 40.0147 -78.6206 289° West 406 467 27,700 -960 Descending Cleveland Center
05:28PM 40.0525 -78.7550 290° West 400 460 26,900 -900 Descending Cleveland Center
05:29PM 40.0922 -78.8978 290° West 405 466 26,000 -960 Descending Cleveland Center
05:30PM 40.1319 -79.0461 289° West 418 481 25,000 -1,020 Descending Cleveland Center
05:31PM 40.1711 -79.1892 290° West 423 487 24,000 -540 Descending Cleveland Center
05:32PM 40.2103 -79.3325 290° West 423 487 24,000  Level Cleveland Center
05:33PM 40.2472 -79.4733 289° West 423 487 24,000  Level Cleveland Center
05:34PM 40.2842 -79.6169 289° West 423 487 24,000  Level Cleveland Center
05:35PM 40.3206 -79.7553 289° West 423 487 24,000  Level Cleveland Center
05:36PM 40.3592 -79.8992 289° West 423 487 24,000  Level Cleveland Center
05:37PM 40.3931 -80.0433 287° West 423 487 24,000  Level Cleveland Center
05:38PM 40.4272 -80.1875 287° West 418 481 24,000  Level Cleveland Center
05:39PM 40.4650 -80.3294 289° West 418 481 24,000 -300 Level Cleveland Center
05:40PM 40.5092 -80.4847 291° West 418 481 23,500 -840 Descending Cleveland Center
05:41PM 40.5425 -80.6186 288° West 408 470 22,400 -1,080 Descending Cleveland Center
05:42PM 40.5714 -80.7444 287° West 383 441 21,400 -1,020 Descending Cleveland Center
05:43PM 40.5942 -80.8756 283° West 369 425 20,400 -1,020 Descending Cleveland Center
05:44PM 40.6292 -80.9936 291° West 363 418 19,400 -960 Descending Cleveland Center
05:45PM 40.6664 -81.1006 295° West 358 412 18,500 -1,020 Descending Cleveland Center
05:46PM 40.7117 -81.2075 299° West 346 398 17,400 -1,080 Descending Cleveland Center
05:47PM 40.7569 -81.3014 303° West 317 365 16,400 -1,020 Descending Cleveland Center
05:48PM 40.8150 -81.3733 317° Northwest 297 342 15,400 -1,440 Descending Cleveland Center
05:49PM 40.8600 -81.4725 301° West 287 330 13,600 -1,860 Descending Cleveland Center
05:50PM 40.8947 -81.5664 296° West 282 325 11,700 -1,800 Descending Cleveland Center
05:51PM 40.9333 -81.6606 299° West 282 325 10,000 -900 Descending Cleveland Center
05:52PM 40.9975 -81.7194 325° Northwest 276 318 10,000  Level Cleveland Center
05:53PM 41.0744 -81.7456 346° North 276 318 10,000 -360 Level Cleveland Center
05:54PM 41.1492 -81.7550 355° North 270 311 9,300 -900 Descending Cleveland Center
05:55PM 41.2264 -81.7536 North 270 311 8,300 -960 Descending Cleveland Center
05:56PM 41.2975 -81.7494 North 275 316 7,400 -600 Descending Cleveland Center
05:57PM 41.3919 -81.6708 32° Northeast 233 268 6,900 -660 Descending Cleveland Center
05:59PM 41.4425 -81.6192 37° Northeast 232 267 5,900 -1,320 Descending Cleveland Center
06:00PM 41.4881 -81.6419 339° North 197 227 4,300 -1,620 Descending Cleveland Center